Terminal Aerodrome Forecast
Issued by NWS

Home | Current Version | Previous Version | Text Only | Print | Product List | Glossary Off
Versions: 1 2 3 4 5 6 7 8 9 10 11 12 13 14
000 FTUS41 KBOX 230536 AAC TAFBAF TAF AMD KBAF 230536Z 2306/2406 00000KT 1SM BR BKN002 FM230900 VRB03KT 3SM BR SCT004 OVC025 FM231200 VRB03KT P6SM FEW200 SCT250=

USA.gov is the U.S. government's official web portal to all federal, state and local government web resources and services.